Weather at Samedan Airport

Public forecast

Using degrees Celsius for public forecast. Weather courtesy of forecast.io.

Current aviation weather report (METAR) for Samedan Airport

Retrieved 2020/10/20 22:20 UTC (18 minutes ago):

LSZS 202220Z AUTO VRB03KT 9999 NSC M02/M03 Q1024

Closest aviation forecast (TAF) to Samedan Airport

Forecast is more than 12 hours old.

Closest forecast is Hohenems-Dornbirn Airfield, 51.6 nm (95.6 km) N. Retrieved 2016/10/31 12:00 UTC (4 years ago):

TAF TAF LOIH 311125Z 3112/3124 VRB01KT 9999 FEW005 OVC010 BECMG 3113/3115 SCT010